Fure West — OZ2100 — position and weather

sailwx.info

Track history (hours):
 
Tides and Currents Weather Stations Pressure Air Temp Water Temp Dewpoint Dewpoint Depression Visibility Wind Speed Wind Dir Waves Ship Positions

Fure West

Last reported at 2016-Dec-03 16:32 UTC. Time now 2016-Dec-03 19:47 UTC.
Position N 51°57' E 004°06'.

Length 144 m; draft 6.4 m.

MMSI: 231775000.

Date/timePositionNaut miles runAvg speedWind from/ knotsBaromVisibWave heightAir tempDewpointWater temp
2016-Dec-03 16:32N 51°57' E 004°06'0 0.2
2016-Dec-03 15:33N 51°57' E 004°05'9 9.2
2016-Dec-03 14:33N 52°01' E 003°52'9 8.6
2016-Dec-03 13:32N 52°09' E 003°45'1 0.6
2016-Dec-03 12:33N 52°09' E 003°44'0 0.0
2016-Dec-03 11:33N 52°09' E 003°44'0 0.0
2016-Dec-03 10:21N 52°09' E 003°44'0 0.0
2016-Dec-03 09:30N 52°09' E 003°44'0 0.0
2016-Dec-03 08:33N 52°09' E 003°44'0 0.0
2016-Dec-03 07:30N 52°09' E 003°44'0 0.1
2016-Dec-03 06:15N 52°09' E 003°44'0 0.0
2016-Dec-03 03:27N 52°10' E 003°45'0 0.3
2016-Dec-03 02:33N 52°09' E 003°45'9 9.1
2016-Dec-03 01:33N 52°02' E 003°55'1010.1
2016-Dec-03 00:33N 51°57' E 004°09'0 0.0
2016-Dec-01 19:33N 51°57' E 004°09'6 5.5
2016-Dec-01 18:33N 51°60' E 004°01'1010.2
2016-Dec-01 17:32N 52°05' E 003°46'15 4.4
2016-Dec-01 14:12N 52°20' E 003°41'5 5.3
2016-Dec-01 13:12N 52°14' E 003°38'5 6.9
2016-Dec-01 12:28N 52°19' E 003°35'6 6.7
2016-Dec-01 11:33N 52°22' E 003°44'10 9.9
2016-Dec-01 10:33N 52°12' E 003°41'3 2.8
2016-Dec-01 09:27N 52°09' E 003°43'0 0.0
2016-Dec-01 08:21N 52°09' E 003°44'0 0.1
2016-Dec-01 07:33N 52°09' E 003°44'0 0.1
2016-Dec-01 06:33N 52°09' E 003°44'0 0.1
2016-Dec-01 05:15N 52°09' E 003°44'0 0.0
2016-Dec-01 04:15N 52°10' E 003°44'0 0.0
2016-Dec-01 03:30N 52°10' E 003°44'0 0.1
2016-Dec-01 01:30N 52°09' E 003°44'0 0.1
2016-Dec-01 00:20N 52°09' E 003°44'0 0.1
2016-Nov-30 22:18N 52°09' E 003°43'0 0.0
2016-Nov-30 21:21N 52°09' E 003°43'0 0.1
2016-Nov-30 20:27N 52°09' E 003°44'0 0.1
2016-Nov-30 19:33N 52°09' E 003°44'0 0.1
2016-Nov-30 17:30N 52°09' E 003°44'0 0.1
2016-Nov-30 16:06N 52°09' E 003°44'0 0.0
2016-Nov-30 15:18N 52°10' E 003°44'0 0.0
2016-Nov-30 14:15N 52°10' E 003°44'0 0.1
2016-Nov-30 13:09N 52°09' E 003°44'0 0.0
2016-Nov-30 11:30N 52°09' E 003°44'7 7.5
2016-Nov-30 10:31N 52°06' E 003°33'12110.1
2016-Nov-29 22:31N 54°02' E 004°30'1111.7
2016-Nov-29 21:33N 54°04' E 004°48'1211.9
2016-Nov-29 20:33N 54°06' E 005°09'1211.7
2016-Nov-29 19:32N 54°07' E 005°29'1211.1
2016-Nov-29 18:29N 54°09' E 005°48'6211.6
2016-Nov-29 13:08N 54°12' E 007°34'1013.5
2016-Nov-29 12:26N 54°07' E 007°49'8 8.9
2016-Nov-29 11:33N 54°03' E 008°00'6 6.3
2016-Nov-29 10:33N 54°01' E 008°10'1111.4
2016-Nov-29 09:33N 53°59' E 008°29'1110.8
2016-Nov-29 08:33N 53°52' E 008°44'1413.7
2016-Nov-29 07:33N 53°53' E 009°07'2 1.7
2016-Nov-29 06:33N 53°54' E 009°09'7 6.5
2016-Nov-29 05:33N 53°59' E 009°17'8 7.1
2016-Nov-29 04:29N 54°06' E 009°20'24 5.4
2016-Nov-29 00:08N 54°22' E 009°50'4 6.3
2016-Nov-28 23:33N 54°21' E 009°56'6 5.9
2016-Nov-28 22:33N 54°22' E 010°05'2 2.1
2016-Nov-28 21:33N 54°22' E 010°09'8 8.3
2016-Nov-28 20:33N 54°29' E 010°16'10 9.9
2016-Nov-28 19:33N 54°33' E 010°31'1212.2
2016-Nov-28 18:33N 54°35' E 010°52'1211.9
2016-Nov-28 17:33N 54°35' E 011°13'1312.5
2016-Nov-28 16:33N 54°30' E 011°32'1212.1
2016-Nov-28 15:33N 54°26' E 011°52'1211.5
2016-Nov-28 14:33N 54°28' E 012°12'62 9.9
2016-Nov-28 08:15N 54°43' E 013°56'26 9.8
2016-Nov-28 05:33N 54°39' E 014°42'1410.3
2016-Nov-28 04:14N 54°41' E 015°05'710.2
2016-Nov-28 03:33N 54°42' E 015°17'103 9.4
2016-Nov-27 16:33N 54°58' E 018°14'7 7.4
2016-Nov-27 15:33N 54°58' E 018°26'6 6.2
2016-Nov-27 14:33N 54°57' E 018°37'6 6.1
2016-Nov-27 13:33N 54°53' E 018°46'6 6.4
2016-Nov-27 12:33N 54°49' E 018°55'7 7.3
2016-Nov-27 11:33N 54°44' E 019°04'9 8.7
2016-Nov-27 10:33N 54°36' E 019°06'1110.9
2016-Nov-27 09:33N 54°26' E 018°58'9 8.9
2016-Nov-27 08:33N 54°24' E 018°43'0 0.0
2016-Nov-26 06:08N 54°24' E 018°43'2 2.9
2016-Nov-26 05:33N 54°24' E 018°46'1010.4
2016-Nov-26 04:33N 54°31' E 019°00'1010.0
2016-Nov-26 03:33N 54°41' E 019°02'1010.0
2016-Nov-26 02:33N 54°49' E 018°53'1111.3
2016-Nov-26 01:33N 54°56' E 018°37'1111.1
2016-Nov-26 00:33N 54°57' E 018°18'1211.6
2016-Nov-25 23:31N 54°57' E 017°57'10011.0
2016-Nov-25 14:25N 54°40' E 015°06'3310.7
2016-Nov-25 11:19N 54°38' E 014°09'811.0
2016-Nov-25 10:33N 54°41' E 013°55'1211.2
2016-Nov-25 09:28N 54°45' E 013°35'1011.1
2016-Nov-25 08:33N 54°45' E 013°17'1111.3
2016-Nov-25 07:33N 54°45' E 012°58'1110.8
2016-Nov-25 06:33N 54°43' E 012°39'1211.2
2016-Nov-25 05:31N 54°37' E 012°23'1010.7
2016-Nov-25 04:33N 54°28' E 012°14'1010.5
2016-Nov-25 03:33N 54°25' E 011°57'1111.4
2016-Nov-25 02:33N 54°27' E 011°38'1211.9
2016-Nov-25 01:33N 54°32' E 011°19'1211.8
2016-Nov-25 00:33N 54°35' E 010°60'1212.0
2016-Nov-24 23:33N 54°34' E 010°39'6 6.0
2016-Nov-24 22:33N 54°32' E 010°29'4 4.0
2016-Nov-24 21:33N 54°31' E 010°23'5 5.2
2016-Nov-24 20:33N 54°28' E 010°15'7 7.0
2016-Nov-24 19:33N 54°22' E 010°08'4 4.1
2016-Nov-24 18:33N 54°22' E 010°02'6 5.9
2016-Nov-24 17:33N 54°22' E 009°51'8 7.5
2016-Nov-24 16:29N 54°17' E 009°40'3 3.1
2016-Nov-24 15:33N 54°15' E 009°37'7 7.2
2016-Nov-24 14:33N 54°11' E 009°27'8 7.5
2016-Nov-24 13:32N 54°05' E 009°19'8 7.7
2016-Nov-24 12:33N 53°58' E 009°15'5 5.5
2016-Nov-24 11:33N 53°54' E 009°09'4 3.6
2016-Nov-24 10:34N 53°52' E 009°03'1312.6
2016-Nov-24 09:33N 53°53' E 008°42'1313.0
2016-Nov-24 08:33N 53°59' E 008°22'1111.3
2016-Nov-24 07:33N 53°59' E 008°03'1313.2
2016-Nov-24 06:32N 53°56' E 007°41'4613.9
2016-Nov-24 03:12N 53°45' E 006°24'914.0
2016-Nov-24 02:32N 53°43' E 006°09'1313.7
2016-Nov-24 01:33N 53°38' E 005°48'1413.7
2016-Nov-24 00:33N 53°34' E 005°26'1313.5
2016-Nov-23 23:33N 53°30' E 005°05'2512.2
2016-Nov-23 21:32N 53°13' E 004°34'1212.1
2016-Nov-23 20:33N 53°03' E 004°24'1211.8
2016-Nov-23 19:33N 52°52' E 004°16'1111.2
2016-Nov-23 18:33N 52°42' E 004°08'7 6.9
2016-Nov-23 17:33N 52°38' E 004°17'1212.2
2016-Nov-23 16:33N 52°28' E 004°30'  
Track history (hours):
 
Tides and Currents Weather Stations Pressure Air Temp Water Temp Dewpoint Dewpoint Depression Visibility Wind Speed Wind Dir Waves Ship Positions

Fure West

Last reported at 2016-Dec-03 16:32 UTC. Time now 2016-Dec-03 19:47 UTC.
Position N 51°57' E 004°06'.

Length 144 m; draft 6.4 m.

MMSI: 231775000.

Date/timePositionNaut miles runAvg speedWind from/ knotsBaromVisibWave heightAir tempDewpointWater temp
2016-Dec-03 16:32N 51°57' E 004°06'0 0.2
2016-Dec-03 15:33N 51°57' E 004°05'9 9.2
2016-Dec-03 14:33N 52°01' E 003°52'9 8.6
2016-Dec-03 13:32N 52°09' E 003°45'1 0.6
2016-Dec-03 12:33N 52°09' E 003°44'0 0.0
2016-Dec-03 11:33N 52°09' E 003°44'0 0.0
2016-Dec-03 10:21N 52°09' E 003°44'0 0.0
2016-Dec-03 09:30N 52°09' E 003°44'0 0.0
2016-Dec-03 08:33N 52°09' E 003°44'0 0.0
2016-Dec-03 07:30N 52°09' E 003°44'0 0.1
2016-Dec-03 06:15N 52°09' E 003°44'0 0.0
2016-Dec-03 03:27N 52°10' E 003°45'0 0.3
2016-Dec-03 02:33N 52°09' E 003°45'9 9.1
2016-Dec-03 01:33N 52°02' E 003°55'1010.1
2016-Dec-03 00:33N 51°57' E 004°09'0 0.0
2016-Dec-01 19:33N 51°57' E 004°09'6 5.5
2016-Dec-01 18:33N 51°60' E 004°01'1010.2
2016-Dec-01 17:32N 52°05' E 003°46'15 4.4
2016-Dec-01 14:12N 52°20' E 003°41'5 5.3
2016-Dec-01 13:12N 52°14' E 003°38'5 6.9
2016-Dec-01 12:28N 52°19' E 003°35'6 6.7
2016-Dec-01 11:33N 52°22' E 003°44'10 9.9
2016-Dec-01 10:33N 52°12' E 003°41'3 2.8
2016-Dec-01 09:27N 52°09' E 003°43'0 0.0
2016-Dec-01 08:21N 52°09' E 003°44'0 0.1
2016-Dec-01 07:33N 52°09' E 003°44'0 0.1
2016-Dec-01 06:33N 52°09' E 003°44'0 0.1
2016-Dec-01 05:15N 52°09' E 003°44'0 0.0
2016-Dec-01 04:15N 52°10' E 003°44'0 0.0
2016-Dec-01 03:30N 52°10' E 003°44'0 0.1
2016-Dec-01 01:30N 52°09' E 003°44'0 0.1
2016-Dec-01 00:20N 52°09' E 003°44'0 0.1
2016-Nov-30 22:18N 52°09' E 003°43'0 0.0
2016-Nov-30 21:21N 52°09' E 003°43'0 0.1
2016-Nov-30 20:27N 52°09' E 003°44'0 0.1
2016-Nov-30 19:33N 52°09' E 003°44'0 0.1
2016-Nov-30 17:30N 52°09' E 003°44'0 0.1
2016-Nov-30 16:06N 52°09' E 003°44'0 0.0
2016-Nov-30 15:18N 52°10' E 003°44'0 0.0
2016-Nov-30 14:15N 52°10' E 003°44'0 0.1
2016-Nov-30 13:09N 52°09' E 003°44'0 0.0
2016-Nov-30 11:30N 52°09' E 003°44'7 7.5
2016-Nov-30 10:31N 52°06' E 003°33'12110.1
2016-Nov-29 22:31N 54°02' E 004°30'1111.7
2016-Nov-29 21:33N 54°04' E 004°48'1211.9
2016-Nov-29 20:33N 54°06' E 005°09'1211.7
2016-Nov-29 19:32N 54°07' E 005°29'1211.1
2016-Nov-29 18:29N 54°09' E 005°48'6211.6
2016-Nov-29 13:08N 54°12' E 007°34'1013.5
2016-Nov-29 12:26N 54°07' E 007°49'8 8.9
2016-Nov-29 11:33N 54°03' E 008°00'6 6.3
2016-Nov-29 10:33N 54°01' E 008°10'1111.4
2016-Nov-29 09:33N 53°59' E 008°29'1110.8
2016-Nov-29 08:33N 53°52' E 008°44'1413.7
2016-Nov-29 07:33N 53°53' E 009°07'2 1.7
2016-Nov-29 06:33N 53°54' E 009°09'7 6.5
2016-Nov-29 05:33N 53°59' E 009°17'8 7.1
2016-Nov-29 04:29N 54°06' E 009°20'24 5.4
2016-Nov-29 00:08N 54°22' E 009°50'4 6.3
2016-Nov-28 23:33N 54°21' E 009°56'6 5.9
2016-Nov-28 22:33N 54°22' E 010°05'2 2.1
2016-Nov-28 21:33N 54°22' E 010°09'8 8.3
2016-Nov-28 20:33N 54°29' E 010°16'10 9.9
2016-Nov-28 19:33N 54°33' E 010°31'1212.2
2016-Nov-28 18:33N 54°35' E 010°52'1211.9
2016-Nov-28 17:33N 54°35' E 011°13'1312.5
2016-Nov-28 16:33N 54°30' E 011°32'1212.1
2016-Nov-28 15:33N 54°26' E 011°52'1211.5
2016-Nov-28 14:33N 54°28' E 012°12'62 9.9
2016-Nov-28 08:15N 54°43' E 013°56'26 9.8
2016-Nov-28 05:33N 54°39' E 014°42'1410.3
2016-Nov-28 04:14N 54°41' E 015°05'710.2
2016-Nov-28 03:33N 54°42' E 015°17'103 9.4
2016-Nov-27 16:33N 54°58' E 018°14'7 7.4
2016-Nov-27 15:33N 54°58' E 018°26'6 6.2
2016-Nov-27 14:33N 54°57' E 018°37'6 6.1
2016-Nov-27 13:33N 54°53' E 018°46'6 6.4
2016-Nov-27 12:33N 54°49' E 018°55'7 7.3
2016-Nov-27 11:33N 54°44' E 019°04'9 8.7
2016-Nov-27 10:33N 54°36' E 019°06'1110.9
2016-Nov-27 09:33N 54°26' E 018°58'9 8.9
2016-Nov-27 08:33N 54°24' E 018°43'0 0.0
2016-Nov-26 06:08N 54°24' E 018°43'2 2.9
2016-Nov-26 05:33N 54°24' E 018°46'1010.4
2016-Nov-26 04:33N 54°31' E 019°00'1010.0
2016-Nov-26 03:33N 54°41' E 019°02'1010.0
2016-Nov-26 02:33N 54°49' E 018°53'1111.3
2016-Nov-26 01:33N 54°56' E 018°37'1111.1
2016-Nov-26 00:33N 54°57' E 018°18'1211.6
2016-Nov-25 23:31N 54°57' E 017°57'10011.0
2016-Nov-25 14:25N 54°40' E 015°06'3310.7
2016-Nov-25 11:19N 54°38' E 014°09'811.0
2016-Nov-25 10:33N 54°41' E 013°55'1211.2
2016-Nov-25 09:28N 54°45' E 013°35'1011.1
2016-Nov-25 08:33N 54°45' E 013°17'1111.3
2016-Nov-25 07:33N 54°45' E 012°58'1110.8
2016-Nov-25 06:33N 54°43' E 012°39'1211.2
2016-Nov-25 05:31N 54°37' E 012°23'1010.7
2016-Nov-25 04:33N 54°28' E 012°14'1010.5
2016-Nov-25 03:33N 54°25' E 011°57'1111.4
2016-Nov-25 02:33N 54°27' E 011°38'1211.9
2016-Nov-25 01:33N 54°32' E 011°19'1211.8
2016-Nov-25 00:33N 54°35' E 010°60'1212.0
2016-Nov-24 23:33N 54°34' E 010°39'6 6.0
2016-Nov-24 22:33N 54°32' E 010°29'4 4.0
2016-Nov-24 21:33N 54°31' E 010°23'5 5.2
2016-Nov-24 20:33N 54°28' E 010°15'7 7.0
2016-Nov-24 19:33N 54°22' E 010°08'4 4.1
2016-Nov-24 18:33N 54°22' E 010°02'6 5.9
2016-Nov-24 17:33N 54°22' E 009°51'8 7.5
2016-Nov-24 16:29N 54°17' E 009°40'3 3.1
2016-Nov-24 15:33N 54°15' E 009°37'7 7.2
2016-Nov-24 14:33N 54°11' E 009°27'8 7.5
2016-Nov-24 13:32N 54°05' E 009°19'8 7.7
2016-Nov-24 12:33N 53°58' E 009°15'5 5.5
2016-Nov-24 11:33N 53°54' E 009°09'4 3.6
2016-Nov-24 10:34N 53°52' E 009°03'1312.6
2016-Nov-24 09:33N 53°53' E 008°42'1313.0
2016-Nov-24 08:33N 53°59' E 008°22'1111.3
2016-Nov-24 07:33N 53°59' E 008°03'1313.2
2016-Nov-24 06:32N 53°56' E 007°41'4613.9
2016-Nov-24 03:12N 53°45' E 006°24'914.0
2016-Nov-24 02:32N 53°43' E 006°09'1313.7
2016-Nov-24 01:33N 53°38' E 005°48'1413.7
2016-Nov-24 00:33N 53°34' E 005°26'1313.5
2016-Nov-23 23:33N 53°30' E 005°05'2512.2
2016-Nov-23 21:32N 53°13' E 004°34'1212.1
2016-Nov-23 20:33N 53°03' E 004°24'1211.8
2016-Nov-23 19:33N 52°52' E 004°16'1111.2
2016-Nov-23 18:33N 52°42' E 004°08'7 6.9
2016-Nov-23 17:33N 52°38' E 004°17'1212.2
2016-Nov-23 16:33N 52°28' E 004°30'  

Dump ship's entire track history